This is the latest recevied weather packets stored in our database for station/object S54L-12. If no packets are shown the sender has not sent any weather packets the latest 10 day(s).
| Time | Temp. | Humidity | Pressure | Rain* | Wind** | Luminosity | Snow |
|---|---|---|---|---|---|---|---|
| 1778058940 | 12.78° C | 87% | 918.6 hPa | - | - | - | - |
| 1778058040 | 12.78° C | 84% | 918.8 hPa | - | - | - | - |
| 1778057140 | 12.78° C | 86% | 918.6 hPa | - | - | - | - |
| 1778056240 | 13.33° C | 81% | 918.8 hPa | - | - | - | - |
| 1778055340 | 13.33° C | 78% | 918.5 hPa | - | - | - | - |
| 1778054443 | 13.33° C | 79% | 918.2 hPa | - | - | - | - |
| 1778053543 | 13.33° C | 79% | 918.2 hPa | - | - | - | - |
| 1778052643 | 13.33° C | 78% | 918.1 hPa | - | - | - | - |
| 1778051743 | 13.89° C | 73% | 918.3 hPa | - | - | - | - |
| 1778050843 | 15° C | 71% | 918.4 hPa | - | - | - | - |
| 1778049943 | 13.33° C | 78% | 918.4 hPa | - | - | - | - |
| 1778049043 | 12.22° C | 84% | 918.3 hPa | - | - | - | - |
| 1778048143 | 11.67° C | 85% | 918.3 hPa | - | - | - | - |
| 1778047242 | 11.67° C | 87% | 918.1 hPa | - | - | - | - |
| 1778046342 | 12.22° C | 87% | 918.1 hPa | - | - | - | - |
| 1778045442 | 11.67° C | 89% | 918.1 hPa | - | - | - | - |
| 1778044542 | 11.67° C | 89% | 918.1 hPa | - | - | - | - |
| 1778043642 | 11.11° C | 93% | 918.1 hPa | - | - | - | - |
| 1778042741 | 11.11° C | 96% | 918.2 hPa | - | - | - | - |
| 1778041841 | 10.56° C | 98% | 918.1 hPa | - | - | - | - |
| 1778040940 | 10.56° C | 98% | 918 hPa | - | - | - | - |
| 1778040040 | 10.56° C | 99% | 917.9 hPa | - | - | - | - |
| 1778039140 | 10.56° C | 100% | 918 hPa | - | - | - | - |
| 1778038240 | 10.56° C | 100% | 917.9 hPa | - | - | - | - |
| 1778037340 | 10.56° C | 99% | 918.1 hPa | - | - | - | - |
* Rain since midnight (hover to see other rain measurements)
** Current wind speed in m/s (hover to see current wind gust speed)